Main page
METAR-TAF:

METAR-TAF

Airports :

Fort Collins–Loveland Municipal Airport

Fort Collins / Loveland, Colorado, United States

latitude: 40-27N, longitude: 105-01W, elevation: 5015 ft

Current weather observation

The report was made 18 minutes ago, at 09:56 UTC
Wind 5 mph from the North/Northeast
Temperature 48°F
Humidity 61%
Pressure 29.76 in. Hg
Visibility: 10 miles
Clear sky

METAR: KFNL 250956Z AUTO 02004KT 10SM CLR 09/02 A2976 RMK AO2 SLP029 T00940017 $

Time: 04:14 (10:14 UTC)


TAF: missing

Weather observations and forecasts of more than 4000 airports (METAR and TAF reports).

The available stations are represented by yellow and red dots on the map.

Hover mouse over dot to see the name of the station.

Then click to see weather observations and forecasts.

To change the map : click on the green buttons with a black cross to zoom in, on the green button with a dash to zoom out, or on the green arrows for adjacent maps.


METAR-TAF: